Terminal Aerodrome Forecast
Issued by NWS

Home | Current Version | Previous Version | Text Only | Print | Product List | Glossary On
Versions: 1 2 3 4 5 6 7 8 9 10 11 12 13 14
000
FTUS44 KLIX 281741
TAFMSY
TAF
KMSY 281741Z 2818/2918 16010KT P6SM FEW030 SCT080 BKN150
      TEMPO 2820/2824 4SM TSRA OVC040CB
     FM290300 15009KT P6SM VCSH BKN025 BKN050
     FM290800 14007KT P6SM -SHRA VCTS SCT025CB OVC070
     FM291100 16009KT 4SM TSRA SCT025CB OVC040=

USA.gov is the U.S. government's official web portal to all federal, state and local government web resources and services.